Historique des mesures à Cassis (13260), France
Quotidien Résumé Mai 4, 2018 Unités:  Métrique    US   Métrique/US
« Précédent (Jour)
Suivant (Jour) »
Quotidien Hebdomadaire Mensuel Annuel Période au choix
  Maximum: Minimum: Moyenne:
Température: TemperatureC °C 16.3 °C 17.5 °C
Point de rosée: DewpointC °C 9.4 °C 11.7 °C
Humidité: Humidity % 52 % 66 %
Vitesse du vent: 0 km/h 0 km/h 7.2 km/h
Rafales: 0 km/h - -
Vent:- - SW
Pression: PressurehPa hPa 1000.9 hPa -
Précipitations: 13.0 mm    
Historical Graphs
 
 
Mesures pour : Mai 4, 2018
Heure Temperature Point de rosée Pression Vent Vitesse du vent Rafales Humidité Pluie (par heure) Conditions
TemperatureC °C DewpointC °C PressurehPa hPa Calm     Humidity % HourlyPrecipMM mm SoftwareType W/m2
00:11 16.8 °C 10.6 °C 1001.6 hPa NNW 5.6 km/h 7.6 km/h 67 % 0.0 mm open2300-1.11 W/m2
01:11 17.0 °C 10.3 °C 1000.9 hPa WNW 15.6 km/h 15.6 km/h 65 % 0.0 mm open2300-1.11 W/m2
02:12 16.6 °C 10.0 °C 1001.2 hPa NW 19.6 km/h 22.5 km/h 65 % 0.0 mm open2300-1.11 W/m2
03:11 16.6 °C 10.4 °C 1001.6 hPa NNW 4.7 km/h 5.6 km/h 67 % 0.0 mm open2300-1.11 W/m2
04:11 16.5 °C 10.4 °C 1000.9 hPa NW 11.6 km/h 15 km/h 67 % 0.0 mm open2300-1.11 W/m2
05:11 16.9 °C 9.8 °C 1001.2 hPa Calm   5.1 km/h 63 % 0.0 mm open2300-1.11 W/m2
06:12 16.9 °C 9.8 °C 1001.6 hPa NNE 3.4 km/h 6.9 km/h 63 % 0.0 mm open2300-1.11 W/m2
07:11 16.5 °C 9.4 °C 1001.9 hPa Calm   4.2 km/h 63 % 0.0 mm open2300-1.11 W/m2
08:11 16.3 °C 10.2 °C 1003.3 hPa North 3.4 km/h 6.4 km/h 67 % 0.0 mm open2300-1.11 W/m2
09:10 16.3 °C 10.9 °C 1003.9 hPa Calm     70 % 0.0 mm open2300-1.11 W/m2
10:10 17.8 °C 12.5 °C 1004.3 hPa Calm     71 % 0.0 mm open2300-1.11 W/m2
11:10 21.9 °C 14.8 °C 1004.6 hPa SE 5.1 km/h 5.1 km/h 64 % 0.0 mm open2300-1.11 W/m2
12:10 22.6 °C 13.9 °C 1004.6 hPa SE 5.6 km/h 5.6 km/h 58 % 0.0 mm open2300-1.11 W/m2
13:10 24.9 °C 15.2 °C 1004.3 hPa SE 4.2 km/h 6.9 km/h 55 % 0.0 mm open2300-1.11 W/m2
14:10 23.3 °C 12.9 °C 1004.6 hPa WNW 41.2 km/h 41.2 km/h 52 % 0.0 mm open2300-1.11 W/m2
15:10 21.2 °C 12.3 °C 1005.3 hPa WNW 36.5 km/h 36.5 km/h 57 % 0.0 mm open2300-1.11 W/m2
16:10 17.9 °C 13.0 °C 1006.7 hPa South 2.9 km/h 12.7 km/h 73 % 7.9 mm open2300-1.11 W/m2
17:10 16.8 °C 13.1 °C 1007.3 hPa WNW 12.2 km/h 20.3 km/h 79 % 5.1 mm open2300-1.11 W/m2
18:10 17.1 °C 13.6 °C 1006.7 hPa ENE 3.4 km/h 6.4 km/h 80 % 0.0 mm open2300-1.11 W/m2
19:12 18.5 °C 14.8 °C 1007.0 hPa Calm     79 % 0.0 mm open2300-1.11 W/m2
20:12 17.6 °C 13.9 °C 1007.3 hPa Calm     79 % 0.0 mm open2300-1.11 W/m2
21:12 17.1 °C 13.6 °C 1007.7 hPa Calm     80 % 0.0 mm open2300-1.11 W/m2
22:12 16.4 °C 13.2 °C 1007.7 hPa Calm     81 % 0.0 mm open2300-1.11 W/m2
23:11 16.8 °C 13.5 °C 1008.0 hPa WNW 6.4 km/h 6.4 km/h 81 % 0.0 mm open2300-1.11 W/m2
Observations météo à CASSIS
WU-History script by Weather Underground - 1 mb